This is the latest recevied weather packets stored in our database for station/object KN4DS-3. If no packets are shown the sender has not sent any weather packets the latest 1 day(s).
| Time | Temp. | Humidity | Pressure | Rain* | Wind** | Luminosity | Snow |
|---|---|---|---|---|---|---|---|
| 1778079005 | 24.44° C | 68% | 1017.1 hPa | 0 mm | - | - | - |
| 1778076305 | 21.67° C | 80% | 1016.7 hPa | 0 mm | - | - | - |
| 1778074805 | 20° C | 83% | 1016.8 hPa | 0 mm | - | - | - |
| 1778072705 | 18.89° C | 86% | 1016.4 hPa | 0 mm | - | - | - |
| 1778072404 | 18.89° C | 86% | 1016.5 hPa | 0 mm | - | - | - |
| 1778071205 | 18.33° C | 87% | 1016.3 hPa | 0 mm | - | - | - |
| 1778067305 | 16.11° C | 92% | 1015.4 hPa | 0 mm | - | - | - |
| 1778066104 | 16.11° C | 92% | 1015.4 hPa | 0 mm | - | - | - |
| 1778064904 | 15.56° C | 92% | 1014.8 hPa | 0 mm | - | - | - |
| 1778064605 | 15.56° C | 92% | 1014.7 hPa | 0 mm | - | - | - |
| 1778063405 | 15.56° C | 91% | 1014.5 hPa | 0 mm | - | - | - |
| 1778063104 | 15.56° C | 91% | 1014.5 hPa | 0 mm | - | - | - |
| 1778062805 | 15.56° C | 91% | 1014.5 hPa | 0 mm | - | - | - |
| 1778062504 | 15.56° C | 91% | 1014.4 hPa | 0 mm | - | - | - |
| 1778060405 | 15.56° C | 90% | 1014.6 hPa | 0 mm | - | - | - |
| 1778060105 | 15.56° C | 90% | 1014.6 hPa | 0 mm | - | - | - |
| 1778059805 | 15.56° C | 90% | 1014.6 hPa | 0 mm | - | - | - |
| 1778059504 | 15.56° C | 90% | 1014.6 hPa | 0 mm | - | - | - |
| 1778058605 | 15.56° C | 88% | 1014.5 hPa | 0 mm | - | - | - |
| 1778058305 | 15.56° C | 88% | 1014.6 hPa | 0 mm | - | - | - |
| 1778058004 | 16.11° C | 88% | 1014.7 hPa | 0 mm | - | - | - |
| 1778057104 | 16.11° C | 87% | 1014.9 hPa | 0 mm | - | - | - |
| 1778056504 | 16.11° C | 87% | 1015 hPa | 0 mm | - | - | - |
| 1778055904 | 16.11° C | 88% | 1015.1 hPa | 0 mm | - | - | - |
| 1778055005 | 16.67° C | 86% | 1015.1 hPa | 0 mm | - | - | - |
* Rain latest hour (hover to see other rain measurements)
** Current wind speed in m/s (hover to see current wind gust speed)